Latest Coastal Weather Observations for Mackay

IDQ60701

Issued at 2:45 am EST Wednesday 30 July 2014 (issued every 10 minutes, with the page automatically refreshed every 10 minutes)

About coastal observations | Map of coastal stations | Coastal observations for QLD | Marine services | Other Formats
Station Details ID: 033119 Name: MACKAY M.O Lat: -21.12 Lon: 149.22 Height: 30.26 m
Data from the previous 72 hours. | See also: Recent months at Mackay
Date/Time
EST
Temp

°C
Wind Pressure Rain
since 9am
mm
Weather Cloud Vis
km
Sea
Height
m
Swell
Dir
 
Speed
knots
Gust
knots
hPa Trend Height
m
Period
s
Dir
30/02:30am 12.7 WSW 9 11 1020.8 - 0.0 - - - - - - -
30/02:00am 12.8 SW 9 11 1020.9 - 0.0 - - - - - - -
30/01:30am 13.0 SW 8 10 1021.2 - 0.0 - - - - - - -
30/01:00am 13.3 SW 7 8 1021.2 - 0.0 - - - - - - -
30/12:30am 13.6 SW 6 8 1021.5 - 0.0 - - - - - - -
30/12:00am 14.0 SW 7 8 1021.6 - 0.0 - - - - - - -
 
Date/Time
EST
Temp

°C
Wind Pressure Rain
since 9am
mm
Weather Cloud Vis
km
Sea
Height
m
Swell
Dir
 
Speed
knots
Gust
knots
hPa Trend Height
m
Period
s
Dir
29/11:30pm 13.9 SW 7 9 1021.8 - 0.0 - - - - - - -
29/11:00pm 14.0 SW 7 8 1021.8 - 0.0 - - - - - - -
29/10:30pm 14.3 SW 6 7 1021.9 - 0.0 - - - - - - -
29/10:00pm 14.3 SW 6 7 1022.0 - 0.0 - - - - - - -
29/09:30pm 15.1 SW 6 7 1022.0 - 0.0 - - - - - - -
29/09:00pm 16.8 SSE 5 7 1021.7 F 0.0 - - - - - - -
29/08:30pm 17.3 SSE 6 8 1021.6 - 0.0 - - - - - - -
29/08:00pm 17.4 SE 5 8 1021.4 - 0.0 - - - - - - -
29/07:30pm 17.3 SSE 5 7 1021.3 - 0.0 - - - - - - -
29/07:00pm 17.3 SSE 5 8 1020.9 - 0.0 - - - - - - -
29/06:30pm 17.8 SE 5 7 1020.8 - 0.0 - - - - - - -
29/06:00pm 18.1 SSE 7 9 1020.5 R 0.0 - - - - - - -
29/05:30pm 18.6 SE 6 8 1020.3 - 0.0 - - - - - - -
29/05:00pm 19.6 ESE 5 7 1020.0 - 0.0 - - - - - - -
29/04:30pm 20.3 SE 6 10 1020.0 - 0.0 - - - - - - -
29/04:00pm 20.8 SE 6 9 1019.7 - 0.0 - Mostly clear 10 - - - -
29/03:30pm 20.9 SE 7 11 1019.8 - 0.0 - Mostly clear 10 - - - -
29/03:00pm 21.1 SE 8 11 1019.8 R 0.0 Haze Mostly clear 20 - - - -
29/02:30pm 21.3 SE 8 11 1019.9 - 0.0 - Mostly clear 10 - - - -
29/02:00pm 21.1 SE 8 13 1020.0 - 0.0 - Mostly clear 10 - - - -
29/01:30pm 21.3 SE 9 12 1020.5 - 0.0 - - - - - - -
29/01:00pm 21.3 SE 8 13 1020.7 - 0.0 - Mostly clear 10 - - - -
29/12:30pm 21.2 SE 8 12 1021.2 - 0.0 - Mostly clear 10 - - - -
29/12:00pm 21.7 SSE 8 13 1021.6 F 0.0 Haze Mostly clear 20 - - - -
29/11:30am 22.3 SSE 8 11 1022.1 - 0.0 - - 10 - - - -
29/11:00am 21.2 SSE 8 11 1022.3 - 0.0 - Mostly clear 10 - - - -
29/10:30am 21.0 SSE 8 12 1022.7 - 0.0 - Mostly clear 10 - - - -
29/10:00am 20.8 S 7 11 1022.8 - 0.0 - Mostly clear 10 - - - -
29/09:30am 19.5 SSW 6 8 1023.1 - 0.0 - Mostly clear 10 - - - -
29/09:00am 17.6 SSW 7 9 1023.1 F 0.4 Haze Mostly clear 15 - - - -
29/08:30am 15.8 SW 8 10 1023.1 - 0.4 - Mostly clear 10 - - - -
29/08:00am 14.6 SW 7 12 1022.8 - 0.4 - Mostly clear 10 - - - -
29/07:30am 13.4 SW 8 11 1022.8 - 0.4 - - 9 - - - -
29/07:00am 12.7 SW 7 9 1022.5 - 0.4 - - - - - - -
29/06:30am 12.8 WSW 7 10 1022.4 - 0.4 - - - - - - -
29/06:00am 12.7 SW 7 9 1022.1 R 0.4 Recent precip. - - - - - -
29/05:30am 12.9 SW 7 8 1021.9 - 0.2 - - - - - - -
29/05:00am 13.1 SW 7 10 1021.4 - 0.2 - - - - - - -
29/04:30am 13.4 SW 7 10 1021.2 - 0.2 - - - - - - -
29/04:00am 13.5 SW 7 11 1021.0 - 0.2 - - - - - - -
29/03:30am 13.9 SW 7 9 1021.0 - 0.2 - - - - - - -
29/03:00am 14.1 WSW 7 9 1020.8 - 0.2 - - - - - - -
29/02:30am 14.4 WSW 7 9 1020.9 - 0.2 - - - - - - -
29/02:00am 14.7 WSW 7 10 1020.8 - 0.2 - - - - - - -
29/01:30am 15.4 SW 7 9 1021.1 - 0.2 - - - - - - -
29/01:00am 16.1 SW 6 7 1021.2 - 0.0 - Partly cloudy - - - - -
29/12:47am 16.4 SW 7 9 1021.4 - 0.0 - Partly cloudy - - - - -
29/12:30am 16.4 SW 6 8 1021.4 - 0.0 - Partly cloudy - - - - -
29/12:00am 16.6 SW 6 8 1021.4 - 0.0 - Cloudy - - - - -
 
Date/Time
EST
Temp

°C
Wind Pressure Rain
since 9am
mm
Weather Cloud Vis
km
Sea
Height
m
Swell
Dir
 
Speed
knots
Gust
knots
hPa Trend Height
m
Period
s
Dir
28/11:30pm 16.5 SW 6 8 1021.6 - 0.0 - Partly cloudy - - - - -
28/11:20pm 16.5 SW 6 8 1021.7 - 0.0 - Partly cloudy - - - - -
28/11:00pm 16.0 SW 7 8 1021.6 - 0.0 - - - - - - -
28/10:30pm 15.6 SW 7 8 1021.7 - 0.0 - - - - - - -
28/10:00pm 15.9 SW 5 6 1021.8 - 0.0 - - - - - - -
28/09:30pm 16.8 SW 4 5 1021.9 - 0.0 - - - - - - -
28/09:00pm 17.8 NE 4 5 1021.7 F 0.0 - - - - - - -
28/08:30pm 17.9 ENE 4 6 1021.6 - 0.0 - - - - - - -
28/08:00pm 18.2 ENE 5 7 1021.3 - 0.0 - - - - - - -
28/07:30pm 18.1 ENE 4 7 1021.3 - 0.0 - - - - - - -
28/07:00pm 18.2 ENE 4 6 1020.9 - 0.0 - - - - - - -
28/06:30pm 18.3 ENE 5 7 1020.7 - 0.0 - - - - - - -
28/06:00pm 18.5 ENE 6 8 1020.5 R 0.0 - - - - - - -
28/05:30pm 18.9 E 6 8 1020.4 - 0.0 - - - - - - -
28/05:00pm 19.4 E 5 8 1020.1 - 0.0 - Mostly clear 10 - - - -
28/04:30pm 19.8 E 5 9 1020.1 - 0.0 - Mostly clear 10 - - - -
28/04:00pm 20.2 ESE 5 8 1019.9 - 0.0 - Mostly clear 10 - - - -
28/03:30pm 20.0 ESE 7 11 1019.8 - 0.0 - Mostly clear 10 - - - -
28/03:00pm 20.0 ESE 8 11 1019.8 F 0.0 Fine Mostly clear 25 - - - -
28/02:30pm 20.5 SE 7 11 1020.0 - 0.0 - Mostly clear 10 - - - -
28/02:00pm 20.8 SE 8 12 1020.1 - 0.0 - Mostly clear 10 - - - -
28/01:47pm 20.6 SE 8 12 1020.3 - 0.0 - Partly cloudy - - - - -
28/01:30pm 20.5 SE 7 12 1020.5 - 0.0 - Mostly clear 10 - - - -
28/01:00pm 20.6 SE 8 14 1020.8 - 0.0 - Mostly clear 10 - - - -
28/12:30pm 20.9 SE 7 10 1021.5 - 0.0 - Mostly clear 10 - - - -
28/12:00pm 21.0 SE 6 10 1022.0 F 0.0 Fine Mostly clear 25 - - - -
28/11:30am 21.0 SE 8 14 1022.5 - 0.0 - Mostly clear 10 - - - -
28/11:00am 21.1 SSE 8 13 1022.8 - 0.0 - Mostly clear 10 - - - -
28/10:30am 20.6 SSE 7 11 1023.1 - 0.0 - Mostly clear 10 - - - -
28/10:00am 20.1 SSE 7 10 1023.1 - 0.0 - Mostly clear 10 - - - -
28/09:30am 20.4 SSE 7 10 1023.2 - 0.0 - Mostly clear 10 - - - -
28/09:00am 19.4 SSW 6 7 1023.2 R 0.0 Fine Mostly clear 25 - - - -
28/08:30am 17.4 SSW 6 8 1023.0 - 0.0 - Mostly clear 10 - - - -
28/08:00am 15.9 W 4 6 1022.8 - 0.0 - Partly cloudy 10 - - - -
28/07:30am 14.3 W 5 7 1022.5 - 0.0 - Mostly clear 10 - - - -
28/07:00am 13.9 WSW 7 9 1022.1 - 0.0 - Mostly clear 10 - - - -
28/06:30am 14.2 SW 8 9 1021.9 - 0.0 - Mostly clear 10 - - - -
28/06:00am 14.2 SW 7 9 1021.5 R 0.0 Fine Mostly clear 20 - - - -
28/05:30am 14.6 SW 7 9 1021.5 - 0.0 - Partly cloudy - - - - -
28/05:00am 14.6 SW 7 8 1021.1 - 0.0 - Partly cloudy - - - - -
28/04:30am 15.2 SW 7 8 1021.1 - 0.0 - Cloudy - - - - -
28/04:01am 15.6 SW 7 8 1021.1 - 0.0 - Cloudy - - - - -
28/04:00am 15.6 SW 7 8 1021.0 - 0.0 - Cloudy - - - - -
28/03:30am 15.4 SW 7 9 1021.1 - 0.0 - Cloudy - - - - -
28/03:00am 15.2 SW 7 9 1020.9 - 0.0 - Partly cloudy - - - - -
28/02:45am 15.2 SW 7 9 1021.0 - 0.0 - Partly cloudy - - - - -
28/02:30am 15.3 SW 6 7 1021.1 - 0.0 - Partly cloudy - - - - -
28/02:00am 15.6 SSW 6 8 1021.2 - 0.0 - Partly cloudy - - - - -
28/01:30am 15.7 SW 6 8 1021.6 - 0.0 - Partly cloudy - - - - -
28/01:00am 15.8 SW 6 7 1021.7 - 0.0 - Partly cloudy - - - - -
28/12:30am 15.9 SW 6 7 1022.0 - 0.0 - Partly cloudy - - - - -
28/12:00am 16.2 SSW 6 8 1022.2 - 0.0 - Partly cloudy - - - - -
 
Date/Time
EST
Temp

°C
Wind Pressure Rain
since 9am
mm
Weather Cloud Vis
km
Sea
Height
m
Swell
Dir
 
Speed
knots
Gust
knots
hPa Trend Height
m
Period
s
Dir
27/11:30pm 16.5 SW 6 7 1022.4 - 0.0 - Partly cloudy - - - - -
27/11:00pm 16.6 SW 6 7 1022.5 - 0.0 - - - - - - -
27/10:30pm 16.7 SW 6 6 1022.7 - 0.0 - Partly cloudy - - - - -
27/10:00pm 17.0 SW 6 7 1022.6 - 0.0 - Partly cloudy - - - - -
27/09:30pm 17.4 SW 6 8 1022.7 - 0.0 - Partly cloudy - - - - -
27/09:00pm 18.0 SSW 4 5 1022.4 R 0.0 - Mostly clear - - - - -
27/08:30pm 18.5 E 1 4 1022.4 - 0.0 - Partly cloudy - - - - -
27/08:00pm 18.2 ENE 4 6 1022.1 - 0.0 - - - - - - -
27/07:30pm 18.0 NE 4 6 1021.9 - 0.0 - - - - - - -
27/07:00pm 18.1 NE 4 6 1021.3 - 0.0 - - - - - - -
27/06:30pm 18.5 ENE 6 8 1021.1 - 0.0 - - - - - - -
27/06:00pm 18.8 E 6 8 1020.7 F 0.0 - - - - - - -
27/05:30pm 19.2 E 6 8 1020.6 - 0.0 - - - - - - -
27/05:00pm 19.8 ESE 5 7 1020.4 - 0.0 - Mostly clear 10 - - - -
27/04:30pm 20.2 ESE 6 9 1020.4 - 0.0 - Mostly clear 10 - - - -
27/04:00pm 20.5 ESE 5 10 1020.3 - 0.0 - Mostly clear 10 - - - -
27/03:30pm 21.0 SE 7 12 1020.4 - 0.0 - Mostly clear 10 - - - -
27/03:00pm 20.9 SE 9 13 1020.4 R 0.0 Fine Mostly clear 25 - - - -
27/02:30pm 20.9 SE 8 13 1020.7 - 0.0 - Mostly clear 10 - - - -
27/02:00pm 21.3 ESE 7 11 1020.9 - 0.0 - Mostly clear 10 - - - -
27/01:30pm 21.4 SE 9 12 1021.3 - 0.0 - Mostly clear 10 - - - -
27/01:00pm 21.8 SSE 9 14 1021.5 - 0.0 - Mostly clear 10 - - - -
27/12:30pm 21.9 SSE 8 13 1022.0 - 0.0 - Mostly clear 10 - - - -
27/12:00pm 21.2 SSE 12 15 1022.2 F 0.0 Fine Mostly clear 20 - - - -
27/11:30am 21.3 SSE 10 14 1022.9 - 0.0 - Mostly clear 10 - - - -
27/11:00am 21.1 SSE 9 14 1023.0 - 0.0 - Mostly clear 10 - - - -
27/10:30am 21.3 SSE 10 15 1023.4 - 0.0 - Mostly clear 10 - - - -
27/10:00am 21.0 SSE 11 16 1023.6 - 0.0 - Mostly clear 10 - - - -
27/09:30am 20.9 SSE 8 12 1023.7 - 0.0 - Mostly clear 10 - - - -
27/09:00am 20.2 SSE 8 11 1023.6 F 0.0 Fine Mostly clear 20 - - - -
27/08:30am 19.8 S 9 13 1023.3 - 0.0 - Mostly clear 10 - - - -
27/08:00am 19.1 S 9 13 1022.9 - 0.0 - Mostly clear 10 - - - -
27/07:30am 17.9 SSW 7 9 1022.8 - 0.0 - Mostly clear 10 - - - -
27/07:00am 17.4 S 7 8 1022.7 - 0.0 - Mostly clear 10 - - - -
27/06:30am 17.6 S 7 9 1022.6 - 0.0 - Mostly clear 10 - - - -
27/06:00am 18.2 S 7 9 1022.2 F 0.0 Fine Mostly clear 20 - - - -
27/05:30am 18.3 S 7 9 1022.1 - 0.0 - Partly cloudy - - - - -
27/05:00am 18.1 S 7 9 1021.8 - 0.0 - Partly cloudy - - - - -
27/04:30am 18.1 S 8 10 1021.9 - 0.0 - Partly cloudy - - - - -
27/04:21am 18.1 S 8 11 1021.9 - 0.0 - Partly cloudy - - - - -
27/04:00am 17.9 S 7 9 1021.6 - 0.0 - Partly cloudy - - - - -
27/03:30am 17.8 S 7 9 1021.8 - 0.0 - Partly cloudy - - - - -
27/03:20am 17.9 S 7 9 1021.8 - 0.0 - Partly cloudy - - - - -
27/03:02am 18.1 S 7 9 1022.0 - 0.0 - Partly cloudy - - - - -
27/03:00am 18.1 S 7 9 1021.9 - 0.0 - Cloudy - - - - -

Other Formats:

Comma delimited format used in spreadsheet applications
http://www.bom.gov.au/fwo/IDQ60701/IDQ60701.94367.axf

JavaScript Object Notation format (JSON) in row-major order
http://www.bom.gov.au/fwo/IDQ60701/IDQ60701.94367.json